Time;durP1;ratioP1;P1;durP2;ratioP2;P2;SDS_P1;SDS_P2;PMS_P1;PMS_P2;Temp;Humidity;BMP_temperature;BMP_pressure;BME280_temperature;BME280_humidity;BME280_pressure;Samples;Min_cycle;Max_cycle;Signal;HPM_P1;HPM_P2
2022/04/14 00:00:14;;;;;;;9.13;8.73;;;;;;;5.37;55.71;93150.06;4990852;28;20268;-72
2022/04/14 00:02:40;;;;;;;7.87;7.57;;;;;;;5.41;56.86;93140.78;4991652;28;20223;-73
2022/04/14 00:05:06;;;;;;;9.70;9.23;;;;;;;5.35;56.90;93132.16;4990918;28;20231;-72
2022/04/14 00:07:32;;;;;;;10.13;9.63;;;;;;;5.39;56.43;93151.38;4991190;28;20243;-72
2022/04/14 00:09:57;;;;;;;9.60;9.10;;;;;;;5.29;57.15;93148.63;4991205;28;20240;-73
2022/04/14 00:12:23;;;;;;;9.80;9.30;;;;;;;5.23;57.68;93157.31;4990483;28;20216;-72
2022/04/14 00:14:48;;;;;;;10.43;9.93;;;;;;;5.12;57.03;93110.78;4991050;28;20223;-73
2022/04/14 00:17:14;;;;;;;9.47;9.07;;;;;;;5.32;57.31;93152.56;4990705;28;20259;-73
2022/04/14 00:19:40;;;;;;;9.83;9.43;;;;;;;5.17;57.88;93154.88;4990368;28;20227;-72
2022/04/14 00:22:06;;;;;;;8.80;7.87;;;;;;;5.15;58.85;93151.72;4990863;28;20251;-71
2022/04/14 00:24:31;;;;;;;9.00;8.60;;;;;;;5.16;58.58;93142.94;4990220;28;20239;-72
2022/04/14 00:26:57;;;;;;;10.07;9.47;;;;;;;5.12;57.36;93134.84;4990619;28;20188;-72
2022/04/14 00:29:22;;;;;;;9.93;9.40;;;;;;;4.90;57.10;93119.19;4990315;28;20761;-73
2022/04/14 00:31:48;;;;;;;8.80;8.47;;;;;;;5.16;57.04;93132.59;4991411;28;20268;-73
2022/04/14 00:34:13;;;;;;;9.03;8.73;;;;;;;5.08;58.12;93132.97;4990726;28;20220;-73
2022/04/14 00:36:38;;;;;;;9.60;9.07;;;;;;;5.18;58.23;93136.53;4991017;28;20667;-73
2022/04/14 00:39:04;;;;;;;9.63;9.17;;;;;;;5.12;57.81;93144.44;4990072;28;20691;-73
2022/04/14 00:41:29;;;;;;;10.70;10.20;;;;;;;5.12;58.69;93136.66;4990528;28;20208;-72
2022/04/14 00:43:55;;;;;;;9.73;9.33;;;;;;;5.04;59.35;93140.44;4990282;28;20696;-71
2022/04/14 00:46:22;;;;;;;10.47;9.87;;;;;;;4.95;59.10;93145.16;4990696;28;20180;-72
2022/04/14 00:48:52;;;;;;;9.57;8.97;;;;;;;5.01;58.82;93145.28;4989893;28;20227;-73
2022/04/14 00:51:17;;;;;;;9.13;8.73;;;;;;;5.07;58.39;93145.13;4990162;28;20200;-73
2022/04/14 00:53:42;;;;;;;8.80;8.40;;;;;;;5.13;57.41;93151.16;4990089;28;20255;-72
2022/04/14 00:56:08;;;;;;;9.13;8.73;;;;;;;5.09;57.54;93160.44;4990550;28;20291;-72
2022/04/14 00:58:34;;;;;;;9.73;9.30;;;;;;;5.04;57.86;93152.56;4989276;28;20223;-72
2022/04/14 01:01:02;;;;;;;9.93;9.43;;;;;;;5.06;58.89;93153.13;4990090;28;20195;-73
2022/04/14 01:03:27;;;;;;;10.33;9.87;;;;;;;4.97;58.94;93150.09;4990093;28;20227;-72
2022/04/14 01:05:53;;;;;;;9.23;8.83;;;;;;;4.94;59.46;93141.03;4989272;28;20203;-73
2022/04/14 01:08:19;;;;;;;9.70;8.93;;;;;;;4.88;60.05;93149.72;4989931;28;20231;-73
2022/04/14 01:10:49;;;;;;;10.23;9.43;;;;;;;5.00;59.27;93138.53;4992943;28;20198;-72
2022/04/14 01:13:18;;;;;;;9.30;8.90;;;;;;;4.80;59.91;93131.16;4992457;28;20223;-73
2022/04/14 01:15:48;;;;;;;10.03;9.57;;;;;;;4.85;59.51;93146.78;4994167;28;20188;-73
2022/04/14 01:18:14;;;;;;;9.53;8.93;;;;;;;4.72;60.35;93131.53;4993593;28;20248;-72
2022/04/14 01:20:43;;;;;;;9.97;9.57;;;;;;;4.83;60.76;93152.19;4993796;28;20207;-72
2022/04/14 01:23:11;;;;;;;10.20;9.40;;;;;;;4.74;61.11;93135.47;4993430;28;20251;-73
2022/04/14 01:25:37;;;;;;;9.27;8.73;;;;;;;4.73;61.52;93156.41;4993391;28;20700;-73
2022/04/14 01:28:04;;;;;;;9.23;8.83;;;;;;;4.89;61.13;93153.06;4992518;28;20215;-72
2022/04/14 01:30:30;;;;;;;9.50;8.97;;;;;;;4.71;60.97;93156.63;4993598;28;20196;-73
2022/04/14 01:32:56;;;;;;;9.33;8.93;;;;;;;4.49;61.23;93137.56;4993232;28;20192;-71
2022/04/14 01:35:24;;;;;;;9.23;8.83;;;;;;;4.65;61.94;93156.75;4993389;28;20219;-71
2022/04/14 01:37:50;;;;;;;9.87;9.47;;;;;;;4.69;63.38;93152.69;4991810;28;20184;-72
2022/04/14 01:40:16;;;;;;;9.33;8.53;;;;;;;4.63;63.08;93151.81;4992325;28;20195;-73
2022/04/14 01:42:42;;;;;;;9.97;9.47;;;;;;;4.59;63.94;93157.66;4992522;28;20180;-72
2022/04/14 01:45:10;;;;;;;10.13;9.63;;;;;;;4.56;63.84;93156.31;4992296;28;20259;-72
2022/04/14 01:47:44;;;;;;;10.33;9.77;;;;;;;4.54;62.77;93152.38;4992049;28;20177;-72
2022/04/14 01:50:12;;;;;;;9.30;8.80;;;;;;;4.48;63.27;93156.66;4991262;28;20220;-72
2022/04/14 01:52:39;;;;;;;8.93;8.53;;;;;;;4.48;63.40;93148.91;4993198;28;20198;-72
2022/04/14 01:55:05;;;;;;;8.97;8.67;;;;;;;4.64;63.30;93155.94;4992648;28;20713;-73
2022/04/14 01:57:31;;;;;;;8.70;8.37;;;;;;;4.63;62.61;93156.97;4992698;28;20252;-72
2022/04/14 01:59:58;;;;;;;10.27;9.77;;;;;;;4.59;62.19;93165.41;4991316;28;20224;-72
2022/04/14 02:02:23;;;;;;;9.87;9.47;;;;;;;4.60;62.38;93164.41;4991601;28;20180;-73
2022/04/14 02:04:49;;;;;;;10.80;10.10;;;;;;;4.41;61.90;93155.22;4991090;28;20284;-72
2022/04/14 02:07:14;;;;;;;9.20;8.80;;;;;;;4.49;62.03;93170.38;4991767;28;20242;-72
2022/04/14 02:09:40;;;;;;;9.03;8.63;;;;;;;4.43;61.78;93171.28;4991409;28;20232;-73
2022/04/14 02:12:05;;;;;;;10.30;9.77;;;;;;;4.42;62.09;93173.06;4992001;28;20196;-71
2022/04/14 02:14:31;;;;;;;9.70;9.20;;;;;;;4.24;61.99;93169.84;4992586;28;20238;-72
2022/04/14 02:16:56;;;;;;;9.43;8.93;;;;;;;4.31;61.86;93160.94;4992320;28;20191;-73
2022/04/14 02:19:21;;;;;;;9.87;9.33;;;;;;;4.50;61.92;93174.53;4992374;28;20234;-73
2022/04/14 02:21:47;;;;;;;11.00;10.13;;;;;;;4.57;61.87;93139.78;4992404;28;20618;-72
2022/04/14 02:24:13;;;;;;;9.30;8.70;;;;;;;4.56;62.17;93153.72;4991624;28;20856;-73
2022/04/14 02:26:38;;;;;;;10.40;9.63;;;;;;;4.40;62.42;93144.09;4992597;28;20212;-72
2022/04/14 02:29:03;;;;;;;10.63;10.03;;;;;;;4.44;62.52;93150.38;4992057;28;20336;-72
2022/04/14 02:31:29;;;;;;;9.77;9.27;;;;;;;4.35;63.38;93146.59;4992801;28;20211;-72
2022/04/14 02:33:54;;;;;;;10.37;9.57;;;;;;;4.38;63.22;93140.16;4991045;28;20226;-72
2022/04/14 02:36:20;;;;;;;9.03;8.67;;;;;;;4.40;62.43;93140.72;4991724;28;20196;-73
2022/04/14 02:38:45;;;;;;;9.93;9.27;;;;;;;4.25;63.12;93140.44;4991431;28;20242;-72
2022/04/14 02:41:11;;;;;;;9.80;9.30;;;;;;;4.25;63.43;93140.44;4991587;28;20183;-72
2022/04/14 02:43:37;;;;;;;9.53;9.13;;;;;;;4.29;63.61;93146.69;4991246;28;20236;-72
2022/04/14 02:46:04;;;;;;;9.73;9.13;;;;;;;4.23;62.44;93137.28;4991667;28;20308;-74
2022/04/14 02:48:30;;;;;;;10.03;9.57;;;;;;;4.15;63.27;93127.28;4990669;28;20230;-73
2022/04/14 02:50:56;;;;;;;9.87;9.37;;;;;;;4.31;63.10;93153.19;4991342;28;20192;-73
2022/04/14 02:53:22;;;;;;;10.03;9.47;;;;;;;4.12;63.63;93156.16;4990866;28;20239;-73
2022/04/14 02:55:47;;;;;;;11.43;10.83;;;;;;;4.01;64.35;93162.91;4991263;28;20196;-73
2022/04/14 02:58:13;;;;;;;10.80;10.20;;;;;;;4.02;64.27;93158.50;4991561;28;20212;-73
2022/04/14 03:00:39;;;;;;;11.80;11.13;;;;;;;4.03;64.67;93160.88;4990758;28;20193;-73
2022/04/14 03:03:04;;;;;;;11.03;10.17;;;;;;;4.00;63.06;93166.47;4989008;28;20279;-73
2022/04/14 03:05:30;;;;;;;10.57;9.97;;;;;;;4.02;63.01;93171.41;4990773;28;20184;-73
2022/04/14 03:07:55;;;;;;;10.30;9.77;;;;;;;3.98;64.90;93176.28;4989817;28;20180;-73
2022/04/14 03:10:21;;;;;;;9.57;9.07;;;;;;;3.99;64.38;93166.69;4991502;28;20219;-71
2022/04/14 03:12:47;;;;;;;9.93;9.50;;;;;;;3.93;65.52;93163.25;4990732;28;20247;-73
2022/04/14 03:15:15;;;;;;;9.80;9.30;;;;;;;4.05;65.03;93161.44;4991267;28;20272;-73
2022/04/14 03:17:41;;;;;;;10.73;10.23;;;;;;;4.01;65.63;93162.91;4990864;28;20203;-73
2022/04/14 03:20:07;;;;;;;9.90;9.40;;;;;;;3.77;65.85;93152.75;4990190;28;20224;-73
2022/04/14 03:22:34;;;;;;;9.90;9.43;;;;;;;4.01;65.96;93155.16;4989336;28;20216;-73
2022/04/14 03:25:04;;;;;;;9.77;9.13;;;;;;;3.76;66.89;93156.38;4990227;28;20224;-73
2022/04/14 03:27:30;;;;;;;9.03;8.60;;;;;;;3.78;66.66;93160.31;4989879;28;20180;-72
2022/04/14 03:29:56;;;;;;;10.43;9.93;;;;;;;3.67;66.95;93140.44;4990409;28;20887;-72
2022/04/14 03:32:23;;;;;;;11.00;10.13;;;;;;;3.68;67.94;93157.50;4989884;28;20204;-73
2022/04/14 03:34:49;;;;;;;10.33;9.83;;;;;;;3.72;67.52;93168.94;4990258;28;20271;-72
2022/04/14 03:37:14;;;;;;;11.50;10.80;;;;;;;3.66;67.15;93171.66;4990486;28;20894;-73
2022/04/14 03:39:40;;;;;;;10.10;9.60;;;;;;;3.79;67.26;93171.41;4990129;28;20228;-73
2022/04/14 03:42:05;;;;;;;8.97;8.37;;;;;;;3.71;66.38;93154.47;4990876;28;20208;-72
2022/04/14 03:44:31;;;;;;;9.37;8.97;;;;;;;3.83;65.91;93168.16;4990647;28;20223;-73
2022/04/14 03:46:56;;;;;;;10.77;9.73;;;;;;;3.99;65.90;93182.19;4989889;28;20210;-73
2022/04/14 03:49:21;;;;;;;10.17;9.67;;;;;;;3.90;65.81;93188.72;4989808;28;20243;-75
2022/04/14 03:51:47;;;;;;;11.50;10.37;;;;;;;3.88;66.30;93176.03;4990334;28;20215;-75
2022/04/14 03:54:12;;;;;;;10.40;9.80;;;;;;;3.79;65.73;93156.72;4989312;28;20246;-76
2022/04/14 03:56:38;;;;;;;9.60;9.10;;;;;;;3.77;66.22;93153.56;4989995;28;20192;-76
2022/04/14 03:59:03;;;;;;;11.00;10.33;;;;;;;3.89;67.00;93177.59;4989184;28;20227;-76
2022/04/14 04:01:29;;;;;;;10.30;9.53;;;;;;;3.95;67.54;93181.88;4990851;28;20251;-76
2022/04/14 04:03:54;;;;;;;11.10;10.27;;;;;;;3.97;67.80;93182.44;4990528;28;20239;-71
2022/04/14 04:06:19;;;;;;;12.57;11.63;;;;;;;4.03;67.50;93176.34;4990438;28;20188;-76
2022/04/14 04:08:45;;;;;;;11.77;10.93;;;;;;;4.07;67.74;93187.03;4990600;28;20232;-73
2022/04/14 04:11:10;;;;;;;9.90;9.20;;;;;;;4.01;68.31;93186.16;4990336;28;20256;-79
2022/04/14 04:13:36;;;;;;;10.23;9.53;;;;;;;4.08;68.38;93186.00;4990828;28;20235;-84
2022/04/14 04:16:01;;;;;;;11.77;9.97;;;;;;;4.04;68.53;93190.88;4991156;28;20190;-77
2022/04/14 04:18:26;;;;;;;10.37;9.67;;;;;;;4.23;68.20;93182.00;4989324;28;20243;-76
2022/04/14 04:20:52;;;;;;;10.90;10.20;;;;;;;4.32;67.58;93188.38;4990671;28;20229;-75
2022/04/14 04:23:17;;;;;;;11.23;10.53;;;;;;;4.47;66.58;93186.13;4990169;28;20236;-77
2022/04/14 04:25:43;;;;;;;10.20;9.70;;;;;;;4.55;66.89;93184.97;4990963;28;20196;-74
2022/04/14 04:28:08;;;;;;;10.97;9.73;;;;;;;4.55;66.27;93178.00;4989966;28;20259;-73
2022/04/14 04:30:34;;;;;;;9.30;8.90;;;;;;;4.62;65.81;93178.66;4991028;28;20206;-77
2022/04/14 04:32:59;;;;;;;12.87;12.07;;;;;;;4.74;66.93;93191.56;4988063;28;20196;-77
2022/04/14 04:35:25;;;;;;;11.73;11.07;;;;;;;4.80;67.53;93196.63;4970957;29;20193;-74
2022/04/14 04:37:50;;;;;;;13.87;12.00;;;;;;;4.94;67.17;93197.13;4971002;28;20195;-75
2022/04/14 04:40:18;;;;;;;10.53;9.43;;;;;;;4.97;67.06;93207.81;4989204;28;20223;-73
2022/04/14 04:42:44;;;;;;;11.47;10.73;;;;;;;5.03;66.87;93207.94;4989568;28;20176;-74
2022/04/14 04:45:09;;;;;;;16.63;9.67;;;;;;;5.23;65.56;93200.53;4989602;28;20232;-74
2022/04/14 04:47:34;;;;;;;21.23;10.43;;;;;;;5.60;63.30;93228.41;4990162;28;20215;-74
2022/04/14 04:50:00;;;;;;;9.30;8.67;;;;;;;5.82;62.21;93234.47;4990029;28;20291;-74
2022/04/14 04:52:25;;;;;;;11.20;10.60;;;;;;;5.78;61.74;93240.34;4990159;28;20180;-74
2022/04/14 04:54:51;;;;;;;12.00;11.30;;;;;;;5.79;62.44;93249.69;4990014;28;20232;-74
2022/04/14 04:57:16;;;;;;;10.83;10.13;;;;;;;5.73;62.39;93232.47;4990337;28;20191;-75
2022/04/14 04:59:42;;;;;;;11.00;10.40;;;;;;;5.92;62.10;93252.00;4990086;28;20247;-74
2022/04/14 05:02:07;;;;;;;10.83;10.20;;;;;;;6.17;60.65;93258.41;4990244;28;20266;-74
2022/04/14 05:04:32;;;;;;;11.83;11.03;;;;;;;6.30;58.95;93250.28;4989911;28;20231;-75
2022/04/14 05:06:58;;;;;;;12.87;12.17;;;;;;;6.50;57.84;93260.19;4989611;28;20184;-74
2022/04/14 05:09:26;;;;;;;13.20;11.10;;;;;;;6.87;57.13;93250.06;4989459;28;20267;-74
2022/04/14 05:11:52;;;;;;;10.97;10.33;;;;;;;6.87;57.94;93263.81;4990751;28;20192;-74
2022/04/14 05:14:17;;;;;;;10.80;10.13;;;;;;;6.52;59.89;93258.16;4989595;28;20231;-74
2022/04/14 05:16:42;;;;;;;12.60;11.40;;;;;;;6.81;59.55;93264.00;4991402;28;20195;-74
2022/04/14 05:19:08;;;;;;;11.13;10.33;;;;;;;6.52;58.63;93264.09;4989659;28;20224;-74
2022/04/14 05:21:33;;;;;;;12.70;11.60;;;;;;;6.68;59.54;93251.38;4989699;28;20232;-75
2022/04/14 05:23:59;;;;;;;13.63;12.47;;;;;;;6.97;59.79;93265.75;4989259;28;20228;-75
2022/04/14 05:26:24;;;;;;;11.97;10.97;;;;;;;6.71;59.43;93261.28;4987209;28;20243;-81
2022/04/14 05:28:49;;;;;;;11.83;11.00;;;;;;;6.85;59.45;93268.47;4988950;28;20258;-76
2022/04/14 05:31:15;;;;;;;11.53;10.73;;;;;;;7.13;58.04;93273.50;4987835;28;20219;-77
2022/04/14 05:33:40;;;;;;;12.87;11.70;;;;;;;6.96;58.39;93270.16;4989260;28;20230;-76
2022/04/14 05:36:06;;;;;;;15.47;11.43;;;;;;;6.91;58.55;93272.69;4988524;28;20211;-77
2022/04/14 05:38:32;;;;;;;12.63;11.53;;;;;;;6.78;57.56;93226.34;4988950;28;20228;-79
2022/04/14 05:40:57;;;;;;;12.20;11.13;;;;;;;7.28;57.59;93273.69;4988517;28;20211;-78
2022/04/14 05:43:25;;;;;;;12.33;11.43;;;;;;;7.70;56.41;93277.28;4988778;28;20243;-78
2022/04/14 05:45:51;;;;;;;11.23;10.60;;;;;;;7.79;55.23;93280.22;4990026;28;20187;-77
2022/04/14 05:48:17;;;;;;;12.60;11.67;;;;;;;8.08;54.23;93284.94;4988644;28;20252;-77
2022/04/14 05:50:44;;;;;;;12.53;11.53;;;;;;;8.33;54.00;93286.22;4989265;28;20199;-77
2022/04/14 05:53:11;;;;;;;11.03;10.43;;;;;;;8.71;53.77;93293.78;4988810;28;20231;-77
2022/04/14 05:55:36;;;;;;;13.10;12.03;;;;;;;8.90;54.15;93290.53;4988901;28;20195;-77
2022/04/14 05:58:03;;;;;;;12.40;11.37;;;;;;;9.72;52.76;93295.88;4990534;28;20180;-76
2022/04/14 06:00:32;;;;;;;11.97;11.07;;;;;;;13.15;44.04;93300.66;4992194;28;20207;-74
2022/04/14 06:02:59;;;;;;;10.57;9.87;;;;;;;16.28;35.35;93312.19;4991611;28;20211;-75
2022/04/14 06:05:29;;;;;;;11.50;10.67;;;;;;;16.52;34.58;93296.94;4992112;28;20210;-76
2022/04/14 06:07:55;;;;;;;13.23;12.00;;;;;;;13.66;39.74;93303.53;4991013;28;20196;-76
2022/04/14 06:10:24;;;;;;;11.23;10.53;;;;;;;11.47;44.80;93296.97;4991928;28;20191;-76
2022/04/14 06:12:50;;;;;;;12.47;11.37;;;;;;;10.85;46.78;93300.75;4990668;28;20211;-78
2022/04/14 06:15:19;;;;;;;10.93;10.07;;;;;;;10.26;47.94;93285.84;4990725;28;20197;-76
2022/04/14 06:17:44;;;;;;;12.97;11.90;;;;;;;9.92;49.45;93279.50;4992268;28;20184;-75
2022/04/14 06:20:11;;;;;;;12.07;10.90;;;;;;;9.75;50.08;93296.16;4991337;28;20235;-76
2022/04/14 06:22:41;;;;;;;13.03;11.93;;;;;;;9.57;50.30;93298.44;4989349;28;20227;-76
2022/04/14 06:25:12;;;;;;;12.53;11.63;;;;;;;9.66;49.22;93269.00;4971618;28;20652;-76
2022/04/14 06:27:42;;;;;;;13.33;12.13;;;;;;;9.48;49.89;93311.16;4970991;28;20196;-75
2022/04/14 06:30:09;;;;;;;13.70;10.83;;;;;;;9.53;50.56;93281.72;4969346;28;20213;-75
2022/04/14 06:32:35;;;;;;;12.23;11.37;;;;;;;9.86;49.94;93310.00;4971789;28;20236;-76
2022/04/14 06:35:00;;;;;;;12.73;11.77;;;;;;;9.85;48.88;93305.84;4990229;28;20224;-76
2022/04/14 06:37:26;;;;;;;11.67;10.77;;;;;;;9.72;49.33;93307.09;4990810;28;20418;-76
2022/04/14 06:39:51;;;;;;;13.20;12.00;;;;;;;9.98;49.37;93301.97;4991076;28;20247;-76
2022/04/14 06:42:21;;;;;;;11.77;10.87;;;;;;;9.87;49.52;93305.59;4990464;28;20191;-76
2022/04/14 06:44:46;;;;;;;13.43;12.23;;;;;;;10.27;47.39;93310.91;4990055;28;20242;-77
2022/04/14 06:47:11;;;;;;;11.37;10.57;;;;;;;10.11;47.74;93273.59;4988886;28;20184;-79
2022/04/14 06:49:37;;;;;;;10.80;10.10;;;;;;;10.32;47.40;93305.72;4991288;28;20230;-77
2022/04/14 06:52:02;;;;;;;11.47;10.47;;;;;;;10.19;47.78;93309.59;4991556;28;20199;-78
2022/04/14 06:54:28;;;;;;;12.13;11.20;;;;;;;10.12;47.74;93295.22;4990355;28;20221;-78
2022/04/14 06:56:53;;;;;;;10.37;9.43;;;;;;;10.27;46.86;93293.44;4991223;28;20196;-77
2022/04/14 06:59:19;;;;;;;12.03;11.13;;;;;;;10.44;47.45;93314.84;4990615;28;20223;-78
2022/04/14 07:01:44;;;;;;;10.57;9.97;;;;;;;10.20;49.13;93312.97;4991141;28;20251;-78
2022/04/14 07:04:09;;;;;;;11.53;10.70;;;;;;;10.35;48.29;93316.41;4990498;28;20243;-78
2022/04/14 07:06:35;;;;;;;12.07;10.87;;;;;;;10.88;46.79;93321.09;4989029;28;20193;-77
2022/04/14 07:09:00;;;;;;;12.23;11.27;;;;;;;10.80;46.81;93334.69;4989100;28;20269;-77
2022/04/14 07:11:26;;;;;;;11.60;10.57;;;;;;;10.57;46.85;93314.31;4990557;28;20192;-78
2022/04/14 07:13:51;;;;;;;11.70;11.00;;;;;;;10.82;46.46;93331.81;4990140;28;20232;-82
2022/04/14 07:16:17;;;;;;;11.37;10.57;;;;;;;11.03;46.02;93334.19;4992464;28;20191;-78
2022/04/14 07:18:42;;;;;;;11.87;11.07;;;;;;;11.20;45.98;93339.91;4990778;28;20236;-80
2022/04/14 07:21:08;;;;;;;11.47;10.73;;;;;;;11.04;47.80;93340.16;4990532;28;20236;-79
2022/04/14 07:23:33;;;;;;;13.07;11.93;;;;;;;10.37;47.67;93329.97;4989170;28;21004;-78
2022/04/14 07:25:58;;;;;;;11.93;11.23;;;;;;;10.85;47.48;93324.25;4989190;28;20180;-78
2022/04/14 07:28:24;;;;;;;12.57;11.40;;;;;;;11.25;45.97;93341.72;4988701;28;20232;-78
2022/04/14 07:30:49;;;;;;;11.27;10.57;;;;;;;10.88;47.53;93326.34;4991031;28;20200;-79
2022/04/14 07:33:15;;;;;;;11.60;10.67;;;;;;;11.18;47.13;93334.16;4988912;28;20647;-79
2022/04/14 07:35:40;;;;;;;11.43;10.63;;;;;;;11.11;47.39;93336.25;4990567;28;20275;-78
2022/04/14 07:38:06;;;;;;;11.13;10.33;;;;;;;10.99;45.92;93286.09;4989914;28;20299;-79
2022/04/14 07:40:31;;;;;;;11.37;10.67;;;;;;;11.61;45.28;93318.88;4989136;28;20318;-79
2022/04/14 07:42:57;;;;;;;11.70;10.73;;;;;;;11.74;44.74;93307.88;4989845;28;20188;-78
2022/04/14 07:45:23;;;;;;;10.27;9.50;;;;;;;11.59;46.03;93315.75;4990918;28;20278;-79
2022/04/14 07:47:49;;;;;;;10.77;10.17;;;;;;;11.90;44.91;93317.22;4989223;28;21003;-78
2022/04/14 07:50:16;;;;;;;11.57;10.87;;;;;;;12.07;45.44;93304.56;4990083;28;20188;-82
2022/04/14 07:52:50;;;;;;;11.03;10.33;;;;;;;11.67;48.85;93307.38;4989977;28;20184;-79
2022/04/14 07:55:20;;;;;;;10.70;10.00;;;;;;;12.10;44.90;93306.66;4989578;28;20211;-79
2022/04/14 07:57:46;;;;;;;11.50;10.70;;;;;;;12.47;43.70;93307.72;4990464;28;20915;-78
2022/04/14 08:00:12;;;;;;;11.10;10.40;;;;;;;12.37;43.44;93307.03;4989387;28;20241;-78
2022/04/14 08:02:53;;;;;;;10.27;9.67;;;;;;;12.08;45.72;93299.06;4990844;28;20195;-78
2022/04/14 08:05:20;;;;;;;9.83;9.23;;;;;;;11.88;45.02;93303.63;4989676;28;20229;-79
2022/04/14 08:07:46;;;;;;;11.20;10.60;;;;;;;12.51;42.83;93313.97;4990548;28;20196;-78
2022/04/14 08:10:11;;;;;;;12.97;10.50;;;;;;;12.52;42.89;93320.00;4990126;28;20229;-79
2022/04/14 08:12:37;;;;;;;10.73;9.83;;;;;;;12.77;41.12;93322.44;4989410;28;20191;-78
2022/04/14 08:15:03;;;;;;;10.77;9.97;;;;;;;12.99;40.36;93322.78;4990601;28;20220;-79
2022/04/14 08:17:29;;;;;;;11.63;10.87;;;;;;;13.07;40.88;93305.72;4991509;28;20184;-79
2022/04/14 08:19:54;;;;;;;9.70;9.20;;;;;;;12.46;40.33;93298.31;4989057;28;20213;-79
2022/04/14 08:22:19;;;;;;;9.63;9.23;;;;;;;12.90;40.52;93321.81;4989695;28;20228;-79
2022/04/14 08:24:47;;;;;;;11.10;10.40;;;;;;;13.33;38.51;93326.19;4989678;28;20238;-79
2022/04/14 08:27:13;;;;;;;11.23;10.50;;;;;;;13.14;39.70;93322.69;4989152;28;20184;-78
2022/04/14 08:29:39;;;;;;;11.07;10.10;;;;;;;13.08;38.66;93302.81;4989069;28;20239;-79
2022/04/14 08:32:07;;;;;;;9.60;9.00;;;;;;;13.04;38.59;93314.13;4988955;28;20207;-78
2022/04/14 08:34:33;;;;;;;10.60;9.70;;;;;;;13.14;38.34;93317.44;4990438;28;20223;-78
2022/04/14 08:36:59;;;;;;;11.67;10.87;;;;;;;13.35;38.87;93328.53;4988802;28;20200;-86
2022/04/14 08:39:26;;;;;;;10.63;10.00;;;;;;;13.26;36.82;93289.00;4989128;28;20215;-77
2022/04/14 08:42:00;;;;;;;12.73;9.67;;;;;;;13.33;37.48;93326.19;4989620;28;20203;-78
2022/04/14 08:44:30;;;;;;;11.43;10.47;;;;;;;13.14;37.86;93327.94;4989067;28;20230;-78
2022/04/14 08:46:57;;;;;;;10.57;9.30;;;;;;;13.08;37.62;93315.94;4990163;28;20188;-79
2022/04/14 08:49:23;;;;;;;11.60;10.47;;;;;;;13.51;37.33;93308.97;4989102;28;20227;-78
2022/04/14 08:51:50;;;;;;;10.47;9.67;;;;;;;13.67;35.72;93315.59;4990006;28;20204;-77
2022/04/14 08:54:19;;;;;;;10.47;9.80;;;;;;;13.40;35.13;93316.13;4989718;28;20227;-78
2022/04/14 08:56:46;;;;;;;9.37;8.87;;;;;;;13.33;36.33;93313.06;4989561;28;20887;-78
2022/04/14 08:59:13;;;;;;;10.60;9.83;;;;;;;13.62;36.95;93305.94;4989104;28;20227;-78
2022/04/14 09:01:38;;;;;;;10.90;10.10;;;;;;;13.65;36.11;93300.13;4988663;28;20192;-78
2022/04/14 09:04:05;;;;;;;11.00;10.20;;;;;;;13.85;36.01;93307.75;4989017;28;20307;-77
2022/04/14 09:06:32;;;;;;;11.00;10.13;;;;;;;13.54;37.84;93309.16;4989361;28;20180;-78
2022/04/14 09:09:01;;;;;;;11.03;10.13;;;;;;;13.80;38.67;93294.72;4988725;28;20232;-78
2022/04/14 09:11:30;;;;;;;12.33;11.43;;;;;;;13.88;37.79;93291.44;4988638;28;20191;-78
2022/04/14 09:13:59;;;;;;;12.00;11.10;;;;;;;13.71;38.06;93285.13;4988807;28;20307;-78
2022/04/14 09:16:26;;;;;;;12.27;11.47;;;;;;;13.81;37.59;93291.00;4989980;28;20184;-78
2022/04/14 09:18:53;;;;;;;11.80;10.73;;;;;;;14.11;38.18;93284.59;4989064;28;20262;-79
2022/04/14 09:21:19;;;;;;;11.53;10.73;;;;;;;14.13;38.16;93274.59;4988012;28;20227;-78
2022/04/14 09:23:51;;;;;;;10.60;9.90;;;;;;;14.20;38.29;93286.31;4988529;28;21312;-78
2022/04/14 09:26:22;;;;;;;10.77;10.03;;;;;;;14.54;36.74;93277.47;4989400;28;20251;-78
2022/04/14 09:29:21;;;;;;;12.33;10.27;;;;;;;14.20;36.59;93272.38;4988642;28;20263;-79
2022/04/14 09:31:51;;;;;;;11.63;10.77;;;;;;;13.85;37.16;93276.25;4955291;28;20211;-78
2022/04/14 09:34:19;;;;;;;10.50;9.87;;;;;;;14.19;37.53;93271.59;4992170;28;20602;-78
2022/04/14 09:37:07;;;;;;;11.13;10.33;;;;;;;14.55;34.62;93279.00;4993967;28;20215;-78
2022/04/14 09:40:10;;;;;;;9.83;9.00;;;;;;;14.48;34.81;93284.63;4990768;28;20228;-78
2022/04/14 09:42:41;;;;;;;11.00;10.33;;;;;;;13.86;34.46;93277.84;4932204;29;20197;-78
2022/04/14 09:45:20;;;;;;;9.37;8.80;;;;;;;14.04;34.79;93279.69;4981986;28;20327;-81
2022/04/14 09:47:53;;;;;;;11.27;10.37;;;;;;;14.37;34.27;93281.38;4993443;28;20198;-78
2022/04/14 09:50:36;;;;;;;10.93;10.07;;;;;;;14.48;33.76;93279.38;4973146;28;20913;-78
2022/04/14 09:53:08;;;;;;;9.93;9.27;;;;;;;14.61;34.23;93278.66;4974875;28;20190;-78
2022/04/14 09:55:38;;;;;;;8.93;8.33;;;;;;;14.72;33.58;93271.38;4992618;28;20184;-79
2022/04/14 09:58:12;;;;;;;9.77;9.20;;;;;;;14.57;33.96;93256.63;4992207;28;20185;-79
2022/04/14 10:00:51;;;;;;;8.87;8.33;;;;;;;14.78;33.64;93275.50;4991879;28;20255;-79
2022/04/14 10:03:17;;;;;;;9.10;8.43;;;;;;;14.97;33.24;93268.34;4991809;28;20242;-78
2022/04/14 10:05:45;;;;;;;10.33;9.63;;;;;;;14.78;33.47;93260.50;4992938;28;20200;-79
2022/04/14 10:08:13;;;;;;;12.60;10.17;;;;;;;14.84;33.64;93261.97;4991791;28;20224;-78
2022/04/14 10:10:41;;;;;;;10.13;9.57;;;;;;;14.68;34.07;93241.50;4992372;28;20224;-78
2022/04/14 10:13:08;;;;;;;9.70;9.00;;;;;;;14.89;33.49;93242.72;4992516;28;20234;-75
2022/04/14 10:15:36;;;;;;;9.50;9.00;;;;;;;15.02;33.59;93242.72;4992382;28;20698;-75
2022/04/14 10:18:07;;;;;;;9.60;9.10;;;;;;;14.70;32.97;93266.41;4990831;28;20785;-76
2022/04/14 10:20:34;;;;;;;8.73;8.33;;;;;;;14.75;33.51;93247.16;4992263;28;20203;-75
2022/04/14 10:23:00;;;;;;;8.33;7.90;;;;;;;14.83;33.75;93254.38;4990769;28;20236;-76
2022/04/14 10:25:27;;;;;;;9.63;9.13;;;;;;;14.81;34.10;93248.63;4991256;28;20212;-76
2022/04/14 10:27:56;;;;;;;9.03;8.43;;;;;;;15.06;33.20;93250.81;4991992;28;20218;-76
2022/04/14 10:30:21;;;;;;;9.50;9.00;;;;;;;15.27;32.72;93254.69;4992608;28;20199;-76
2022/04/14 10:32:47;;;;;;;9.17;8.57;;;;;;;15.09;31.74;93253.66;4991537;28;20200;-76
2022/04/14 10:35:13;;;;;;;9.70;9.20;;;;;;;15.21;32.08;93253.19;4992571;28;20692;-76
2022/04/14 10:37:45;;;;;;;9.07;8.47;;;;;;;15.16;32.03;93253.28;4991171;28;20239;-76
2022/04/14 10:40:11;;;;;;;8.23;7.77;;;;;;;15.45;31.97;93245.94;4972047;28;20240;-76
2022/04/14 10:42:40;;;;;;;9.07;8.47;;;;;;;15.27;31.47;93246.78;4970834;29;20288;-76
2022/04/14 10:45:17;;;;;;;9.40;8.90;;;;;;;15.16;32.85;93254.06;4990432;28;20231;-76
2022/04/14 10:47:42;;;;;;;8.97;8.47;;;;;;;15.46;31.78;93260.66;4992435;28;20223;-76
2022/04/14 10:50:22;;;;;;;9.93;9.33;;;;;;;15.30;31.76;93254.84;4992045;28;20237;-75
2022/04/14 10:53:21;;;;;;;10.80;9.73;;;;;;;15.30;33.72;93254.09;4990853;28;20176;-76
2022/04/14 10:55:50;;;;;;;9.33;8.67;;;;;;;15.40;34.04;93243.41;4987022;28;20296;-77
2022/04/14 10:58:38;;;;;;;9.37;8.73;;;;;;;15.46;34.58;93248.28;4990963;28;20232;-76
2022/04/14 11:01:04;;;;;;;10.00;8.10;;;;;;;15.18;33.36;93235.34;5004777;28;20223;-76
2022/04/14 11:03:47;;;;;;;10.40;9.77;;;;;;;15.34;32.41;93229.53;4991589;28;20216;-76
2022/04/14 11:06:41;;;;;;;9.67;9.17;;;;;;;15.55;32.53;93245.72;4991392;28;20215;-76
2022/04/14 11:09:08;;;;;;;9.37;8.87;;;;;;;15.51;32.10;93242.91;4991002;28;20268;-75
2022/04/14 11:11:58;;;;;;;8.53;7.80;;;;;;;15.84;31.59;93248.84;4991371;28;20222;-76
2022/04/14 11:14:25;;;;;;;8.23;7.80;;;;;;;15.79;31.66;93241.03;4991166;28;20236;-76
2022/04/14 11:16:50;;;;;;;8.93;8.53;;;;;;;15.56;31.58;93236.78;4990496;28;20203;-75
2022/04/14 11:19:19;;;;;;;8.47;7.97;;;;;;;15.97;31.40;93234.84;4991147;28;20287;-76
2022/04/14 11:22:08;;;;;;;9.40;9.00;;;;;;;16.13;31.94;93240.59;4990956;28;20243;-77
2022/04/14 11:24:36;;;;;;;8.57;8.07;;;;;;;16.38;30.98;93238.19;4990565;28;20260;-77
2022/04/14 11:27:28;;;;;;;8.60;8.10;;;;;;;16.21;33.70;93238.03;4990979;28;20181;-77
2022/04/14 11:30:01;;;;;;;9.33;8.73;;;;;;;16.01;33.70;93230.56;4991222;28;20839;-78